sensor_id;sensor_type;location;lat;lon;timestamp;pressure;altitude;pressure_sealevel;temperature;humidity
22206;BME280;11272;50.104;8.754;2023-01-27T00:00:09;101083.78;;;2.46;91.08
22206;BME280;11272;50.104;8.754;2023-01-27T00:02:39;101090.81;;;2.47;91.08
22206;BME280;11272;50.104;8.754;2023-01-27T00:05:06;101089.97;;;2.48;91.00
22206;BME280;11272;50.104;8.754;2023-01-27T00:07:32;101083.88;;;2.49;91.14
22206;BME280;11272;50.104;8.754;2023-01-27T00:09:58;101082.16;;;2.51;91.71
22206;BME280;11272;50.104;8.754;2023-01-27T00:12:25;101084.78;;;2.51;91.90
22206;BME280;11272;50.104;8.754;2023-01-27T00:15:10;101087.41;;;2.51;91.62
22206;BME280;11272;50.104;8.754;2023-01-27T00:17:35;101090.06;;;2.53;91.92
22206;BME280;11272;50.104;8.754;2023-01-27T00:20:02;101083.09;;;2.53;92.06
22206;BME280;11272;50.104;8.754;2023-01-27T00:22:28;101077.84;;;2.53;91.72
22206;BME280;11272;50.104;8.754;2023-01-27T00:25:13;101073.50;;;2.54;92.26
22206;BME280;11272;50.104;8.754;2023-01-27T00:27:38;101072.59;;;2.53;92.15
22206;BME280;11272;50.104;8.754;2023-01-27T00:30:05;101073.53;;;2.56;92.37
22206;BME280;11272;50.104;8.754;2023-01-27T00:32:31;101071.78;;;2.56;92.49
22206;BME280;11272;50.104;8.754;2023-01-27T00:35:16;101074.41;;;2.58;92.36
22206;BME280;11272;50.104;8.754;2023-01-27T00:37:42;101077.94;;;2.58;92.54
22206;BME280;11272;50.104;8.754;2023-01-27T00:40:09;101070.06;;;2.58;92.70
22206;BME280;11272;50.104;8.754;2023-01-27T00:42:35;101069.19;;;2.58;92.72
22206;BME280;11272;50.104;8.754;2023-01-27T00:45:01;101077.13;;;2.61;92.99
22206;BME280;11272;50.104;8.754;2023-01-27T00:47:47;101067.50;;;2.60;92.58
22206;BME280;11272;50.104;8.754;2023-01-27T00:50:13;101072.78;;;2.63;92.64
22206;BME280;11272;50.104;8.754;2023-01-27T00:52:39;101076.28;;;2.63;93.29
22206;BME280;11272;50.104;8.754;2023-01-27T00:55:06;101073.75;;;2.66;93.20
22206;BME280;11272;50.104;8.754;2023-01-27T00:57:32;101078.94;;;2.65;93.41
22206;BME280;11272;50.104;8.754;2023-01-27T00:59:57;101081.53;;;2.63;93.57
22206;BME280;11272;50.104;8.754;2023-01-27T01:02:23;101078.03;;;2.63;93.32
22206;BME280;11272;50.104;8.754;2023-01-27T01:04:49;101078.91;;;2.62;92.98
22206;BME280;11272;50.104;8.754;2023-01-27T01:07:15;101081.53;;;2.62;93.22
22206;BME280;11272;50.104;8.754;2023-01-27T01:09:40;101090.31;;;2.65;93.65
22206;BME280;11272;50.104;8.754;2023-01-27T01:12:06;101082.41;;;2.64;93.61
22206;BME280;11272;50.104;8.754;2023-01-27T01:14:31;101092.09;;;2.66;93.48
22206;BME280;11272;50.104;8.754;2023-01-27T01:16:57;101096.47;;;2.67;93.32
22206;BME280;11272;50.104;8.754;2023-01-27T01:19:22;101101.75;;;2.69;93.92
22206;BME280;11272;50.104;8.754;2023-01-27T01:21:48;101099.16;;;2.70;93.66
22206;BME280;11272;50.104;8.754;2023-01-27T01:24:14;101094.81;;;2.71;93.80
22206;BME280;11272;50.104;8.754;2023-01-27T01:26:40;101100.09;;;2.72;93.75
22206;BME280;11272;50.104;8.754;2023-01-27T01:29:05;101103.63;;;2.74;94.22
22206;BME280;11272;50.104;8.754;2023-01-27T01:31:31;101101.88;;;2.75;93.81
22206;BME280;11272;50.104;8.754;2023-01-27T01:33:56;101100.09;;;2.74;93.55
22206;BME280;11272;50.104;8.754;2023-01-27T01:36:22;101096.59;;;2.73;94.01
22206;BME280;11272;50.104;8.754;2023-01-27T01:38:48;101106.25;;;2.74;93.97
22206;BME280;11272;50.104;8.754;2023-01-27T01:41:17;101106.25;;;2.74;93.93
22206;BME280;11272;50.104;8.754;2023-01-27T01:43:43;101099.25;;;2.75;94.06
22206;BME280;11272;50.104;8.754;2023-01-27T01:46:11;101094.88;;;2.74;93.90
22206;BME280;11272;50.104;8.754;2023-01-27T01:48:44;101092.25;;;2.72;93.89
22206;BME280;11272;50.104;8.754;2023-01-27T01:51:31;101095.72;;;2.73;93.54
22206;BME280;11272;50.104;8.754;2023-01-27T01:56:44;101091.34;;;2.73;94.00
22206;BME280;11272;50.104;8.754;2023-01-27T01:59:18;101084.38;;;2.72;93.97
22206;BME280;11272;50.104;8.754;2023-01-27T02:01:46;101089.63;;;2.72;93.78
22206;BME280;11272;50.104;8.754;2023-01-27T02:04:17;101092.25;;;2.74;94.16
22206;BME280;11272;50.104;8.754;2023-01-27T02:06:53;101091.41;;;2.75;94.04
22206;BME280;11272;50.104;8.754;2023-01-27T02:09:23;101087.03;;;2.75;94.03
22206;BME280;11272;50.104;8.754;2023-01-27T02:11:49;101087.94;;;2.76;93.89
22206;BME280;11272;50.104;8.754;2023-01-27T02:14:15;101084.47;;;2.77;94.29
22206;BME280;11272;50.104;8.754;2023-01-27T02:16:42;101087.97;;;2.79;94.39
22206;BME280;11272;50.104;8.754;2023-01-27T02:19:17;101081.03;;;2.81;93.96
22206;BME280;11272;50.104;8.754;2023-01-27T02:21:47;101082.81;;;2.82;94.44
22206;BME280;11272;50.104;8.754;2023-01-27T02:24:15;101079.31;;;2.81;93.66
22206;BME280;11272;50.104;8.754;2023-01-27T02:26:44;101087.22;;;2.83;93.90
22206;BME280;11272;50.104;8.754;2023-01-27T02:29:12;101082.84;;;2.85;94.19
22206;BME280;11272;50.104;8.754;2023-01-27T02:31:39;101080.25;;;2.85;94.11
22206;BME280;11272;50.104;8.754;2023-01-27T02:34:16;101082.91;;;2.86;93.90
22206;BME280;11272;50.104;8.754;2023-01-27T02:36:46;101082.00;;;2.86;93.75
22206;BME280;11272;50.104;8.754;2023-01-27T02:39:14;101077.63;;;2.85;93.88
22206;BME280;11272;50.104;8.754;2023-01-27T02:41:48;101083.75;;;2.85;93.87
22206;BME280;11272;50.104;8.754;2023-01-27T02:44:14;101089.88;;;2.86;93.65
22206;BME280;11272;50.104;8.754;2023-01-27T02:46:40;101085.47;;;2.85;93.75
22206;BME280;11272;50.104;8.754;2023-01-27T02:49:06;101086.34;;;2.84;93.79
22206;BME280;11272;50.104;8.754;2023-01-27T02:51:32;101088.94;;;2.84;93.83
22206;BME280;11272;50.104;8.754;2023-01-27T02:53:58;101083.72;;;2.84;93.96
22206;BME280;11272;50.104;8.754;2023-01-27T02:56:24;101092.50;;;2.86;93.77
22206;BME280;11272;50.104;8.754;2023-01-27T02:58:51;101091.66;;;2.87;93.85
22206;BME280;11272;50.104;8.754;2023-01-27T03:01:24;101095.16;;;2.89;93.88
22206;BME280;11272;50.104;8.754;2023-01-27T03:03:50;101089.97;;;2.90;93.55
22206;BME280;11272;50.104;8.754;2023-01-27T03:06:18;101086.50;;;2.91;93.78
22206;BME280;11272;50.104;8.754;2023-01-27T03:08:44;101098.78;;;2.94;93.71
22206;BME280;11272;50.104;8.754;2023-01-27T03:11:12;101097.03;;;2.94;93.77
22206;BME280;11272;50.104;8.754;2023-01-27T03:13:38;101097.03;;;2.94;93.34
22206;BME280;11272;50.104;8.754;2023-01-27T03:16:05;101101.41;;;2.94;93.75
22206;BME280;11272;50.104;8.754;2023-01-27T03:18:50;101096.16;;;2.94;93.65
22206;BME280;11272;50.104;8.754;2023-01-27T03:21:18;101095.28;;;2.93;93.87
22206;BME280;11272;50.104;8.754;2023-01-27T03:23:44;101103.16;;;2.95;93.88
22206;BME280;11272;50.104;8.754;2023-01-27T03:26:17;101097.91;;;2.95;93.79
22206;BME280;11272;50.104;8.754;2023-01-27T03:28:46;101104.94;;;2.96;93.80
22206;BME280;11272;50.104;8.754;2023-01-27T03:31:34;101098.84;;;2.97;93.69
22206;BME280;11272;50.104;8.754;2023-01-27T03:34:01;101104.09;;;2.97;93.73
22206;BME280;11272;50.104;8.754;2023-01-27T03:36:39;101107.56;;;2.96;93.73
22206;BME280;11272;50.104;8.754;2023-01-27T03:39:24;101104.06;;;2.95;93.66
22206;BME280;11272;50.104;8.754;2023-01-27T03:42:09;101109.34;;;2.97;93.35
22206;BME280;11272;50.104;8.754;2023-01-27T03:44:58;101114.63;;;2.99;93.59
22206;BME280;11272;50.104;8.754;2023-01-27T03:47:42;101114.63;;;2.99;93.58
22206;BME280;11272;50.104;8.754;2023-01-27T03:50:08;101105.88;;;2.98;93.68
22206;BME280;11272;50.104;8.754;2023-01-27T03:52:38;101103.25;;;3.00;93.54
22206;BME280;11272;50.104;8.754;2023-01-27T03:55:05;101106.75;;;3.00;93.50
22206;BME280;11272;50.104;8.754;2023-01-27T03:57:35;101103.28;;;3.01;93.69
22206;BME280;11272;50.104;8.754;2023-01-27T04:00:02;101112.09;;;3.03;93.80
22206;BME280;11272;50.104;8.754;2023-01-27T04:02:38;101122.59;;;3.03;93.51
22206;BME280;11272;50.104;8.754;2023-01-27T04:05:22;101118.22;;;3.04;93.41
22206;BME280;11272;50.104;8.754;2023-01-27T04:08:06;101115.59;;;3.04;93.52
22206;BME280;11272;50.104;8.754;2023-01-27T04:10:32;101110.38;;;3.05;93.81
22206;BME280;11272;50.104;8.754;2023-01-27T04:12:57;101113.03;;;3.07;93.72
22206;BME280;11272;50.104;8.754;2023-01-27T04:15:23;101106.03;;;3.07;93.66
22206;BME280;11272;50.104;8.754;2023-01-27T04:17:48;101107.81;;;3.08;93.65
22206;BME280;11272;50.104;8.754;2023-01-27T04:20:14;101105.19;;;3.08;93.48
22206;BME280;11272;50.104;8.754;2023-01-27T04:22:39;101113.09;;;3.10;93.36
22206;BME280;11272;50.104;8.754;2023-01-27T04:25:05;101113.97;;;3.10;93.73
22206;BME280;11272;50.104;8.754;2023-01-27T04:27:31;101116.63;;;3.12;93.25
22206;BME280;11272;50.104;8.754;2023-01-27T04:29:56;101111.41;;;3.13;93.12
22206;BME280;11272;50.104;8.754;2023-01-27T04:32:22;101117.56;;;3.15;93.27
22206;BME280;11272;50.104;8.754;2023-01-27T04:34:47;101115.88;;;3.17;93.72
22206;BME280;11272;50.104;8.754;2023-01-27T04:37:13;101111.50;;;3.18;93.21
22206;BME280;11272;50.104;8.754;2023-01-27T04:39:39;101119.41;;;3.19;93.32
22206;BME280;11272;50.104;8.754;2023-01-27T04:42:06;101118.53;;;3.19;92.96
22206;BME280;11272;50.104;8.754;2023-01-27T04:44:31;101112.34;;;3.17;93.33
22206;BME280;11272;50.104;8.754;2023-01-27T04:46:57;101120.22;;;3.17;93.29
22206;BME280;11272;50.104;8.754;2023-01-27T04:49:22;101121.09;;;3.17;93.26
22206;BME280;11272;50.104;8.754;2023-01-27T04:51:48;101115.88;;;3.17;93.32
22206;BME280;11272;50.104;8.754;2023-01-27T04:54:14;101120.19;;;3.15;93.05
22206;BME280;11272;50.104;8.754;2023-01-27T04:56:52;101126.31;;;3.14;93.05
22206;BME280;11272;50.104;8.754;2023-01-27T04:59:17;101132.41;;;3.13;92.80
22206;BME280;11272;50.104;8.754;2023-01-27T05:01:43;101135.88;;;3.12;93.05
22206;BME280;11272;50.104;8.754;2023-01-27T05:04:08;101126.31;;;3.14;93.35
22206;BME280;11272;50.104;8.754;2023-01-27T05:06:34;101144.69;;;3.14;93.23
22206;BME280;11272;50.104;8.754;2023-01-27T05:08:59;101139.44;;;3.16;92.95
22206;BME280;11272;50.104;8.754;2023-01-27T05:11:25;101135.97;;;3.17;92.91
22206;BME280;11272;50.104;8.754;2023-01-27T05:13:51;101136.84;;;3.17;92.83
22206;BME280;11272;50.104;8.754;2023-01-27T05:16:19;101136.84;;;3.17;92.72
22206;BME280;11272;50.104;8.754;2023-01-27T05:18:47;101134.22;;;3.17;92.70
22206;BME280;11272;50.104;8.754;2023-01-27T05:21:18;101137.78;;;3.19;92.94
22206;BME280;11272;50.104;8.754;2023-01-27T05:23:44;101133.38;;;3.18;93.12
22206;BME280;11272;50.104;8.754;2023-01-27T05:26:18;101139.56;;;3.20;92.75
22206;BME280;11272;50.104;8.754;2023-01-27T05:28:45;101148.28;;;3.19;92.91
22206;BME280;11272;50.104;8.754;2023-01-27T05:31:14;101144.81;;;3.20;92.31
22206;BME280;11272;50.104;8.754;2023-01-27T05:33:41;101140.41;;;3.19;92.30
22206;BME280;11272;50.104;8.754;2023-01-27T05:36:08;101151.78;;;3.21;92.87
22206;BME280;11272;50.104;8.754;2023-01-27T05:38:35;101149.16;;;3.21;92.34
22206;BME280;11272;50.104;8.754;2023-01-27T05:41:03;101142.19;;;3.20;92.45
22206;BME280;11272;50.104;8.754;2023-01-27T05:43:31;101150.06;;;3.22;92.47
22206;BME280;11272;50.104;8.754;2023-01-27T05:46:02;101151.84;;;3.23;92.52
22206;BME280;11272;50.104;8.754;2023-01-27T05:48:28;101149.25;;;3.24;92.33
22206;BME280;11272;50.104;8.754;2023-01-27T05:50:55;101148.41;;;3.25;92.29
22206;BME280;11272;50.104;8.754;2023-01-27T05:53:21;101147.50;;;3.25;92.02
22206;BME280;11272;50.104;8.754;2023-01-27T05:55:48;101149.25;;;3.24;92.07
22206;BME280;11272;50.104;8.754;2023-01-27T05:58:14;101158.00;;;3.25;92.54
22206;BME280;11272;50.104;8.754;2023-01-27T06:00:40;101161.53;;;3.25;92.02
22206;BME280;11272;50.104;8.754;2023-01-27T06:03:06;101165.00;;;3.26;91.90
22206;BME280;11272;50.104;8.754;2023-01-27T06:05:33;101161.53;;;3.27;92.01
22206;BME280;11272;50.104;8.754;2023-01-27T06:07:59;101165.03;;;3.27;92.10
22206;BME280;11272;50.104;8.754;2023-01-27T06:10:24;101156.31;;;3.28;92.13
22206;BME280;11272;50.104;8.754;2023-01-27T06:12:50;101161.56;;;3.28;92.45
22206;BME280;11272;50.104;8.754;2023-01-27T06:15:16;101159.88;;;3.30;91.95
22206;BME280;11272;50.104;8.754;2023-01-27T06:17:41;101172.09;;;3.30;91.90
22206;BME280;11272;50.104;8.754;2023-01-27T06:20:07;101165.13;;;3.30;91.84
22206;BME280;11272;50.104;8.754;2023-01-27T06:22:34;101164.22;;;3.30;92.07
22206;BME280;11272;50.104;8.754;2023-01-27T06:25:00;101166.81;;;3.28;91.91
22206;BME280;11272;50.104;8.754;2023-01-27T06:27:28;101164.16;;;3.27;91.86
22206;BME280;11272;50.104;8.754;2023-01-27T06:29:54;101172.91;;;3.27;91.62
22206;BME280;11272;50.104;8.754;2023-01-27T06:32:20;101166.78;;;3.27;91.43
22206;BME280;11272;50.104;8.754;2023-01-27T06:34:45;101176.44;;;3.28;91.75
22206;BME280;11272;50.104;8.754;2023-01-27T06:37:11;101181.72;;;3.29;91.84
22206;BME280;11272;50.104;8.754;2023-01-27T06:39:37;101179.13;;;3.31;91.60
22206;BME280;11272;50.104;8.754;2023-01-27T06:42:03;101181.75;;;3.31;91.52
22206;BME280;11272;50.104;8.754;2023-01-27T06:44:29;101171.25;;;3.32;91.89
22206;BME280;11272;50.104;8.754;2023-01-27T06:46:54;101182.69;;;3.34;91.52
22206;BME280;11272;50.104;8.754;2023-01-27T06:49:20;101187.94;;;3.34;91.37
22206;BME280;11272;50.104;8.754;2023-01-27T06:51:45;101194.06;;;3.35;91.44
22206;BME280;11272;50.104;8.754;2023-01-27T06:54:11;101192.34;;;3.37;91.37
22206;BME280;11272;50.104;8.754;2023-01-27T06:56:37;101197.59;;;3.37;91.31
22206;BME280;11272;50.104;8.754;2023-01-27T06:59:02;101194.13;;;3.36;91.32
22206;BME280;11272;50.104;8.754;2023-01-27T07:01:28;101187.97;;;3.37;90.76
22206;BME280;11272;50.104;8.754;2023-01-27T07:03:53;101186.25;;;3.38;90.84
22206;BME280;11272;50.104;8.754;2023-01-27T07:06:19;101191.53;;;3.39;90.76
22206;BME280;11272;50.104;8.754;2023-01-27T07:08:45;101190.69;;;3.41;90.50
22206;BME280;11272;50.104;8.754;2023-01-27T07:11:12;101193.31;;;3.41;90.88
22206;BME280;11272;50.104;8.754;2023-01-27T07:13:37;101202.97;;;3.43;91.09
22206;BME280;11272;50.104;8.754;2023-01-27T07:16:03;101206.47;;;3.44;90.78
22206;BME280;11272;50.104;8.754;2023-01-27T07:18:29;101203.06;;;3.46;90.75
22206;BME280;11272;50.104;8.754;2023-01-27T07:20:55;101205.69;;;3.48;90.41
22206;BME280;11272;50.104;8.754;2023-01-27T07:23:21;101198.72;;;3.50;90.51
22206;BME280;11272;50.104;8.754;2023-01-27T07:25:46;101208.38;;;3.51;90.57
22206;BME280;11272;50.104;8.754;2023-01-27T07:28:12;101202.28;;;3.52;90.64
22206;BME280;11272;50.104;8.754;2023-01-27T07:30:38;101211.06;;;3.54;90.20
22206;BME280;11272;50.104;8.754;2023-01-27T07:33:08;101208.47;;;3.55;90.59
22206;BME280;11272;50.104;8.754;2023-01-27T07:35:35;101216.38;;;3.58;90.22
22206;BME280;11272;50.104;8.754;2023-01-27T07:38:05;101214.66;;;3.59;90.42
22206;BME280;11272;50.104;8.754;2023-01-27T07:40:31;101215.53;;;3.59;90.35
22206;BME280;11272;50.104;8.754;2023-01-27T07:42:58;101216.44;;;3.60;90.12
22206;BME280;11272;50.104;8.754;2023-01-27T07:45:26;101216.47;;;3.61;89.71
22206;BME280;11272;50.104;8.754;2023-01-27T07:47:52;101218.25;;;3.64;90.11
22206;BME280;11272;50.104;8.754;2023-01-27T07:50:21;101217.44;;;3.66;89.56
22206;BME280;11272;50.104;8.754;2023-01-27T07:52:46;101226.22;;;3.67;90.08
22206;BME280;11272;50.104;8.754;2023-01-27T07:55:12;101221.84;;;3.69;89.85
22206;BME280;11272;50.104;8.754;2023-01-27T07:57:37;101232.44;;;3.72;89.57
22206;BME280;11272;50.104;8.754;2023-01-27T08:00:06;101221.06;;;3.73;89.83
22206;BME280;11272;50.104;8.754;2023-01-27T08:02:37;101231.63;;;3.76;89.34
22206;BME280;11272;50.104;8.754;2023-01-27T08:05:03;101238.69;;;3.78;89.51
22206;BME280;11272;50.104;8.754;2023-01-27T08:07:29;101245.72;;;3.81;89.68
22206;BME280;11272;50.104;8.754;2023-01-27T08:09:54;101240.50;;;3.83;89.79
22206;BME280;11272;50.104;8.754;2023-01-27T08:12:21;101241.44;;;3.86;89.33
22206;BME280;11272;50.104;8.754;2023-01-27T08:14:47;101237.13;;;3.88;89.17
22206;BME280;11272;50.104;8.754;2023-01-27T08:17:13;101234.53;;;3.91;89.00
22206;BME280;11272;50.104;8.754;2023-01-27T08:19:38;101239.84;;;3.94;89.33
22206;BME280;11272;50.104;8.754;2023-01-27T08:22:04;101249.56;;;3.98;89.17
22206;BME280;11272;50.104;8.754;2023-01-27T08:24:29;101240.84;;;4.01;89.02
22206;BME280;11272;50.104;8.754;2023-01-27T08:26:55;101235.66;;;4.04;89.33
22206;BME280;11272;50.104;8.754;2023-01-27T08:29:21;101247.16;;;4.10;88.72
22206;BME280;11272;50.104;8.754;2023-01-27T08:31:47;101241.94;;;4.13;89.12
22206;BME280;11272;50.104;8.754;2023-01-27T08:34:12;101249.03;;;4.17;88.93
22206;BME280;11272;50.104;8.754;2023-01-27T08:36:41;101256.06;;;4.18;88.82
22206;BME280;11272;50.104;8.754;2023-01-27T08:39:09;101262.25;;;4.22;88.30
22206;BME280;11272;50.104;8.754;2023-01-27T08:41:35;101264.00;;;4.23;88.16
22206;BME280;11272;50.104;8.754;2023-01-27T08:44:01;101270.16;;;4.23;88.50
22206;BME280;11272;50.104;8.754;2023-01-27T08:46:26;101272.78;;;4.23;87.98
22206;BME280;11272;50.104;8.754;2023-01-27T08:48:53;101264.03;;;4.24;87.80
22206;BME280;11272;50.104;8.754;2023-01-27T08:51:19;101273.72;;;4.26;88.15
22206;BME280;11272;50.104;8.754;2023-01-27T08:53:44;101271.13;;;4.27;88.05
22206;BME280;11272;50.104;8.754;2023-01-27T08:56:13;101270.31;;;4.31;87.61
22206;BME280;11272;50.104;8.754;2023-01-27T08:58:39;101279.97;;;4.34;87.47
22206;BME280;11272;50.104;8.754;2023-01-27T09:01:06;101281.78;;;4.36;87.38
22206;BME280;11272;50.104;8.754;2023-01-27T09:03:32;101287.94;;;4.37;87.39
22206;BME280;11272;50.104;8.754;2023-01-27T09:05:59;101286.19;;;4.37;87.62
22206;BME280;11272;50.104;8.754;2023-01-27T09:08:25;101292.34;;;4.38;86.74
22206;BME280;11272;50.104;8.754;2023-01-27T09:10:51;101289.72;;;4.38;87.14
22206;BME280;11272;50.104;8.754;2023-01-27T09:13:17;101289.72;;;4.39;87.44
22206;BME280;11272;50.104;8.754;2023-01-27T09:15:43;101293.22;;;4.40;87.14
22206;BME280;11272;50.104;8.754;2023-01-27T09:18:09;101288.00;;;4.41;86.88
22206;BME280;11272;50.104;8.754;2023-01-27T09:20:35;101294.13;;;4.40;86.60
22206;BME280;11272;50.104;8.754;2023-01-27T09:23:02;101304.59;;;4.37;86.04
22206;BME280;11272;50.104;8.754;2023-01-27T09:25:28;101300.22;;;4.39;86.65
22206;BME280;11272;50.104;8.754;2023-01-27T09:27:57;101312.56;;;4.42;86.12
22206;BME280;11272;50.104;8.754;2023-01-27T09:30:24;101312.59;;;4.43;86.43
22206;BME280;11272;50.104;8.754;2023-01-27T09:32:50;101307.34;;;4.45;86.01
22206;BME280;11272;50.104;8.754;2023-01-27T09:35:16;101311.75;;;4.46;85.92
22206;BME280;11272;50.104;8.754;2023-01-27T09:37:47;101306.53;;;4.47;85.95
22206;BME280;11272;50.104;8.754;2023-01-27T09:40:23;101303.00;;;4.47;85.75
22206;BME280;11272;50.104;8.754;2023-01-27T09:43:13;101300.38;;;4.47;85.67
22206;BME280;11272;50.104;8.754;2023-01-27T09:51:05;101312.72;;;4.51;85.58
22206;BME280;11272;50.104;8.754;2023-01-27T10:07:42;101297.06;;;4.60;85.23
22206;BME280;11272;50.104;8.754;2023-01-27T10:22:51;101295.66;;;4.79;84.87
22206;BME280;11272;50.104;8.754;2023-01-27T10:25:49;101289.59;;;4.84;84.28
22206;BME280;11272;50.104;8.754;2023-01-27T10:28:21;101287.00;;;4.87;84.28
22206;BME280;11272;50.104;8.754;2023-01-27T10:30:59;101278.28;;;4.90;84.19
22206;BME280;11272;50.104;8.754;2023-01-27T10:41:53;101275.63;;;4.88;83.24
22206;BME280;11272;50.104;8.754;2023-01-27T10:47:38;101283.50;;;4.88;82.81
22206;BME280;11272;50.104;8.754;2023-01-27T10:50:17;101279.97;;;4.86;83.04
22206;BME280;11272;50.104;8.754;2023-01-27T10:55:28;101286.28;;;4.96;82.83
22206;BME280;11272;50.104;8.754;2023-01-27T10:58:08;101281.91;;;4.96;82.85
22206;BME280;11272;50.104;8.754;2023-01-27T11:03:12;101281.91;;;4.96;82.36
22206;BME280;11272;50.104;8.754;2023-01-27T11:05:47;101275.78;;;4.99;82.14
22206;BME280;11272;50.104;8.754;2023-01-27T11:08:21;101285.50;;;5.04;82.39
22206;BME280;11272;50.104;8.754;2023-01-27T11:10:52;101285.59;;;5.11;82.46
22206;BME280;11272;50.104;8.754;2023-01-27T11:13:37;101286.59;;;5.17;82.57
22206;BME280;11272;50.104;8.754;2023-01-27T11:16:05;101284.91;;;5.24;82.09
22206;BME280;11272;50.104;8.754;2023-01-27T11:18:36;101281.47;;;5.28;81.47
22206;BME280;11272;50.104;8.754;2023-01-27T11:21:10;101280.59;;;5.30;81.83
22206;BME280;11272;50.104;8.754;2023-01-27T11:23:43;101285.94;;;5.35;81.79
22206;BME280;11272;50.104;8.754;2023-01-27T11:26:33;101278.97;;;5.38;81.47
22206;BME280;11272;50.104;8.754;2023-01-27T11:35:08;101269.44;;;5.48;80.48
22206;BME280;11272;50.104;8.754;2023-01-27T11:37:40;101275.56;;;5.47;80.32
22206;BME280;11272;50.104;8.754;2023-01-27T11:40:18;101278.19;;;5.47;80.04
22206;BME280;11272;50.104;8.754;2023-01-27T11:42:46;101272.06;;;5.48;80.17
22206;BME280;11272;50.104;8.754;2023-01-27T11:45:19;101273.78;;;5.46;79.68
22206;BME280;11272;50.104;8.754;2023-01-27T11:47:48;101271.22;;;5.50;77.64
22206;BME280;11272;50.104;8.754;2023-01-27T11:50:16;101271.19;;;5.47;77.77
22206;BME280;11272;50.104;8.754;2023-01-27T11:52:48;101265.88;;;5.43;77.75
22206;BME280;11272;50.104;8.754;2023-01-27T11:55:18;101273.78;;;5.43;78.04
22206;BME280;11272;50.104;8.754;2023-01-27T11:57:53;101265.88;;;5.46;77.48
22206;BME280;11272;50.104;8.754;2023-01-27T12:00:23;101258.03;;;5.49;77.37
22206;BME280;11272;50.104;8.754;2023-01-27T12:02:59;101264.19;;;5.49;77.11
22206;BME280;11272;50.104;8.754;2023-01-27T12:05:32;101258.03;;;5.49;76.73
22206;BME280;11272;50.104;8.754;2023-01-27T12:08:00;101257.19;;;5.51;76.85
22206;BME280;11272;50.104;8.754;2023-01-27T12:13:09;101248.44;;;5.54;76.34
22206;BME280;11272;50.104;8.754;2023-01-27T12:15:47;101258.97;;;5.54;75.75
22206;BME280;11272;50.104;8.754;2023-01-27T12:18:14;101250.19;;;5.54;75.98
22206;BME280;11272;50.104;8.754;2023-01-27T12:20:49;101252.81;;;5.52;75.32
22206;BME280;11272;50.104;8.754;2023-01-27T12:23:28;101252.78;;;5.49;75.81
22206;BME280;11272;50.104;8.754;2023-01-27T12:26:01;101250.16;;;5.52;75.47
22206;BME280;11272;50.104;8.754;2023-01-27T12:28:31;101245.81;;;5.54;75.62
22206;BME280;11272;50.104;8.754;2023-01-27T12:31:04;101244.94;;;5.57;75.67
22206;BME280;11272;50.104;8.754;2023-01-27T12:33:32;101235.31;;;5.59;75.33
22206;BME280;11272;50.104;8.754;2023-01-27T12:35:59;101237.09;;;5.61;75.00
22206;BME280;11272;50.104;8.754;2023-01-27T12:38:29;101232.72;;;5.62;75.28
22206;BME280;11272;50.104;8.754;2023-01-27T12:41:01;101229.25;;;5.64;74.93
22206;BME280;11272;50.104;8.754;2023-01-27T12:43:28;101231.91;;;5.67;75.24
22206;BME280;11272;50.104;8.754;2023-01-27T12:46:03;101224.03;;;5.72;74.88
22206;BME280;11272;50.104;8.754;2023-01-27T12:48:30;101228.47;;;5.74;74.94
22206;BME280;11272;50.104;8.754;2023-01-27T12:51:05;101230.25;;;5.75;74.22
22206;BME280;11272;50.104;8.754;2023-01-27T12:53:38;101229.38;;;5.78;74.49
22206;BME280;11272;50.104;8.754;2023-01-27T12:56:33;101233.78;;;5.77;73.98
22206;BME280;11272;50.104;8.754;2023-01-27T12:58:59;101232.03;;;5.76;73.92
22206;BME280;11272;50.104;8.754;2023-01-27T13:03:58;101238.22;;;5.83;73.92
22206;BME280;11272;50.104;8.754;2023-01-27T13:06:43;101233.00;;;5.86;73.77
22206;BME280;11272;50.104;8.754;2023-01-27T13:09:27;101233.06;;;5.89;73.52
22206;BME280;11272;50.104;8.754;2023-01-27T13:11:56;101228.66;;;5.89;73.28
22206;BME280;11272;50.104;8.754;2023-01-27T13:14:27;101229.56;;;5.90;73.05
22206;BME280;11272;50.104;8.754;2023-01-27T13:16:55;101240.09;;;5.90;72.87
22206;BME280;11272;50.104;8.754;2023-01-27T13:19:41;101241.81;;;5.88;72.33
22206;BME280;11272;50.104;8.754;2023-01-27T13:22:15;101234.81;;;5.87;71.96
22206;BME280;11272;50.104;8.754;2023-01-27T13:24:45;101235.72;;;5.90;72.07
22206;BME280;11272;50.104;8.754;2023-01-27T13:27:16;101232.22;;;5.95;72.22
22206;BME280;11272;50.104;8.754;2023-01-27T13:29:52;101237.56;;;5.98;71.67
22206;BME280;11272;50.104;8.754;2023-01-27T13:32:23;101227.00;;;5.98;71.08
22206;BME280;11272;50.104;8.754;2023-01-27T13:34:58;101241.06;;;6.00;71.19
22206;BME280;11272;50.104;8.754;2023-01-27T13:37:45;101235.84;;;6.03;70.35
22206;BME280;11272;50.104;8.754;2023-01-27T13:40:21;101242.03;;;6.08;70.91
22206;BME280;11272;50.104;8.754;2023-01-27T13:45:41;101243.81;;;6.09;70.29
22206;BME280;11272;50.104;8.754;2023-01-27T13:48:13;101242.03;;;6.09;69.83
22206;BME280;11272;50.104;8.754;2023-01-27T13:51:06;101244.69;;;6.11;70.00
22206;BME280;11272;50.104;8.754;2023-01-27T13:53:31;101253.53;;;6.13;70.04
22206;BME280;11272;50.104;8.754;2023-01-27T14:02:13;101256.19;;;6.16;69.49
22206;BME280;11272;50.104;8.754;2023-01-27T14:04:49;101250.03;;;6.14;69.54
22206;BME280;11272;50.104;8.754;2023-01-27T14:07:27;101259.69;;;6.13;69.25
22206;BME280;11272;50.104;8.754;2023-01-27T14:10:23;101257.03;;;6.13;69.53
22206;BME280;11272;50.104;8.754;2023-01-27T14:13:27;101256.19;;;6.14;69.39
22206;BME280;11272;50.104;8.754;2023-01-27T14:16:04;101256.13;;;6.11;69.04
22206;BME280;11272;50.104;8.754;2023-01-27T14:18:37;101260.50;;;6.09;69.23
22206;BME280;11272;50.104;8.754;2023-01-27T14:21:36;101268.41;;;6.09;68.99
22206;BME280;11272;50.104;8.754;2023-01-27T14:24:38;101273.72;;;6.12;69.00